Saint Paul, Illinois
Current Conditions -  °F | °C
As of 3:15 AM on Sunday 21 Dec 2014 (Local Time) from KSLO Reporting Station
Overcast Overcast  
Wind Chill: 32°   Ceiling: 2900
Heat Index: 36°   Visibility: 10mi
Dew Point: 30°   Wind: 5mph
Humidity: 78%   Direction: 140°SE
Pressure: 30.26"   Gusts: NA
Location:  38.868°N, 88.8641°W
Report Text: KSLO 210915Z AUTO 14004KT 10SM OVC029 02/M01 A3026 RMK AO2 T00221012
Loading
Personal Weather Stations






























Interactive Weather Map New forecast layout! Learn more

10-Day Weather Forecast

Advertisements
Track Severe Weather on mobile